Terminal Aerodrome Forecast
Issued by NWS

Home | Current Version | Previous Version | Text Only | Print | Product List | Glossary On
Versions: 1 2 3 4 5 6 7 8 9 10 11 12 13
000
FTUS43 KMQT 130300 AAA
TAFIWD
TAF AMD
KIWD 130300Z 1303/1324 23004KT P6SM SCT120
     FM130600 27008G15KT P6SM VCSH BKN060
     FM130800 27009KT P6SM SCT060
     FM131200 29013G22KT P6SM SCT200
     FM131900 29015G24KT P6SM BKN060
      AMD LTD TO CLD VIS AND WIND=

USA.gov is the U.S. government's official web portal to all federal, state and local government web resources and services.